Time;durP1;ratioP1;P1;durP2;ratioP2;P2;SDS_P1;SDS_P2;PMS_P1;PMS_P2;Temp;Humidity;BMP_temperature;BMP_pressure;BME280_temperature;BME280_humidity;BME280_pressure;Samples;Min_cycle;Max_cycle;Signal;HPM_P1;HPM_P2
2023/09/29 00:01:56;;;;;;;11.77;2.97;;;17.30;1.00;;;;;;20738075;28;20061;-42
2023/09/29 00:11:58;;;;;;;11.32;2.63;;;17.40;1.00;;;;;;20734420;28;20820;-42
2023/09/29 00:21:59;;;;;;;11.68;3.08;;;17.30;1.00;;;;;;20740842;28;20695;-42
2023/09/29 00:31:59;;;;;;;9.00;2.72;;;17.50;1.00;;;;;;20744481;28;20045;-42
2023/09/29 00:42:00;;;;;;;10.27;2.70;;;17.60;1.00;;;;;;20729327;28;20100;-42
2023/09/29 00:52:02;;;;;;;10.52;3.53;;;17.80;1.00;;;;;;20734429;28;20149;-42
2023/09/29 01:02:05;;;;;;;13.77;3.58;;;17.90;1.00;;;;;;20743580;28;20034;-42
2023/09/29 01:12:09;;;;;;;14.55;2.78;;;18.00;1.00;;;;;;20737832;28;20087;-42
2023/09/29 01:22:09;;;;;;;8.88;2.53;;;18.10;1.00;;;;;;20733588;28;20121;-42
2023/09/29 01:32:14;;;;;;;9.70;2.72;;;18.20;1.00;;;;;;20739985;28;20037;-42
2023/09/29 01:42:15;;;;;;;11.02;3.15;;;18.20;1.00;;;;;;20761845;28;20037;-42
2023/09/29 01:52:16;;;;;;;11.23;3.03;;;18.10;1.00;;;;;;20757658;28;20037;-42
2023/09/29 02:02:16;;;;;;;9.60;3.00;;;18.10;1.00;;;;;;20750591;28;20438;-42
2023/09/29 02:12:17;;;;;;;13.98;3.15;;;18.10;1.00;;;;;;20750946;28;20045;-42
2023/09/29 02:22:19;;;;;;;11.50;3.03;;;18.20;1.00;;;;;;20740191;28;20044;-42
2023/09/29 02:32:19;;;;;;;10.18;3.08;;;18.10;1.00;;;;;;20754446;28;21493;-42
2023/09/29 02:42:20;;;;;;;12.00;3.03;;;18.10;1.00;;;;;;20748783;28;20061;-43
2023/09/29 02:52:20;;;;;;;9.55;2.40;;;18.10;1.00;;;;;;20745513;28;20041;-43
2023/09/29 03:02:22;;;;;;;10.68;2.75;;;18.20;1.00;;;;;;20737401;28;20119;-44
2023/09/29 03:12:22;;;;;;;10.55;3.85;;;18.20;1.00;;;;;;20742888;28;20096;-42
2023/09/29 03:22:23;;;;;;;12.43;3.38;;;18.20;1.00;;;;;;20737632;28;20776;-42
2023/09/29 03:32:23;;;;;;;7.10;3.30;;;18.30;1.00;;;;;;20745830;28;20030;-42
2023/09/29 03:42:24;;;;;;;10.52;4.10;;;17.50;1.00;;;;;;20745251;28;20040;-42
2023/09/29 03:52:25;;;;;;;9.02;3.25;;;17.10;1.00;;;;;;20743708;28;20044;-42
2023/09/29 04:02:26;;;;;;;11.70;4.28;;;17.00;3.00;;;;;;20742362;28;20098;-42
2023/09/29 04:12:26;;;;;;;10.95;4.03;;;17.00;16.50;;;;;;20731511;28;20038;-42
2023/09/29 04:22:27;;;;;;;8.73;3.50;;;17.10;15.50;;;;;;20729127;28;20037;-42
2023/09/29 04:32:27;;;;;;;9.33;3.87;;;17.30;3.40;;;;;;20736971;28;20128;-42
2023/09/29 04:42:28;;;;;;;10.80;3.83;;;17.20;13.00;;;;;;20735827;28;20464;-42
2023/09/29 04:52:28;;;;;;;7.85;3.40;;;17.30;14.30;;;;;;20733069;28;20041;-42
2023/09/29 05:02:30;;;;;;;9.05;3.20;;;17.30;9.10;;;;;;20735937;28;20030;-42
2023/09/29 05:12:30;;;;;;;8.38;3.30;;;17.30;11.00;;;;;;20746421;28;20041;-43
2023/09/29 05:22:32;;;;;;;8.17;3.17;;;17.60;2.30;;;;;;20749368;28;20480;-42
2023/09/29 05:32:33;;;;;;;6.80;3.10;;;17.70;1.00;;;;;;20753308;28;20041;-42
2023/09/29 05:42:34;;;;;;;10.35;3.45;;;17.80;1.00;;;;;;20756372;28;20038;-42
2023/09/29 05:52:35;;;;;;;7.20;2.77;;;17.80;1.00;;;;;;20751582;28;20117;-42
2023/09/29 06:02:35;;;;;;;6.10;2.95;;;18.00;1.00;;;;;;20750748;28;20473;-42
2023/09/29 06:12:37;;;;;;;6.70;2.55;;;18.00;1.00;;;;;;20744320;28;20160;-42
2023/09/29 06:22:37;;;;;;;6.82;3.13;;;18.00;1.00;;;;;;20750741;28;20039;-42
2023/09/29 06:32:38;;;;;;;6.22;3.13;;;17.90;1.00;;;;;;20733820;28;20100;-42
2023/09/29 06:42:39;;;;;;;5.18;2.90;;;18.00;3.60;;;;;;20701750;28;20295;-43
2023/09/29 06:52:40;;;;;;;4.65;2.42;;;18.00;5.30;;;;;;20705553;28;20033;-42
2023/09/29 07:02:40;;;;;;;7.32;3.13;;;18.00;10.30;;;;;;20710993;28;20240;-42
2023/09/29 07:12:41;;;;;;;5.13;2.78;;;18.30;13.50;;;;;;20706830;28;20391;-42
2023/09/29 07:22:42;;;;;;;5.45;2.83;;;18.30;17.90;;;;;;20713866;28;20046;-42
2023/09/29 07:32:42;;;;;;;8.07;2.47;;;18.60;13.60;;;;;;20719679;28;20398;-43
2023/09/29 07:42:43;;;;;;;5.03;2.90;;;18.90;20.20;;;;;;20714142;28;20033;-42
2023/09/29 07:52:44;;;;;;;5.50;2.92;;;19.10;19.50;;;;;;20713989;28;20069;-43
2023/09/29 08:02:45;;;;;;;7.60;3.25;;;19.00;28.30;;;;;;20708779;28;20539;-42
2023/09/29 08:12:45;;;;;;;6.13;3.42;;;19.20;36.10;;;;;;20711787;28;20100;-42
2023/09/29 08:22:46;;;;;;;7.90;3.10;;;19.00;72.20;;;;;;20701635;28;20034;-43
2023/09/29 08:32:46;;;;;;;5.30;3.10;;;19.20;70.20;;;;;;20707017;28;20057;-43
2023/09/29 08:42:50;;;;;;;5.70;3.33;;;19.40;51.30;;;;;;20720327;28;20449;-43
2023/09/29 08:52:52;;;;;;;5.97;3.35;;;19.70;37.50;;;;;;20721118;28;20033;-43
2023/09/29 09:02:54;;;;;;;5.60;2.72;;;19.70;48.50;;;;;;20723376;28;20095;-43
2023/09/29 09:12:55;;;;;;;6.20;2.92;;;19.90;18.90;;;;;;20714289;28;20168;-42
2023/09/29 09:23:01;;;;;;;7.13;2.60;;;20.20;11.60;;;;;;20721852;28;20576;-43
2023/09/29 09:33:05;;;;;;;5.72;2.35;;;20.60;1.00;;;;;;20717074;28;20440;-42
2023/09/29 09:43:09;;;;;;;4.63;2.40;;;20.80;1.00;;;;;;20720741;28;20328;-42
2023/09/29 09:53:13;;;;;;;5.47;2.38;;;20.80;1.00;;;;;;20719434;28;20067;-42
2023/09/29 10:03:16;;;;;;;4.82;2.67;;;20.70;1.00;;;;;;20710082;28;20076;-42
2023/09/29 10:13:16;;;;;;;6.10;3.00;;;20.50;1.00;;;;;;20709149;28;20122;-43
2023/09/29 10:23:17;;;;;;;7.40;2.72;;;20.60;1.00;;;;;;20690070;28;20113;-43
2023/09/29 10:33:18;;;;;;;4.10;2.78;;;20.60;2.30;;;;;;20696187;28;20034;-43
2023/09/29 10:43:22;;;;;;;4.68;3.30;;;20.50;11.50;;;;;;20708051;28;20706;-41
2023/09/29 10:53:23;;;;;;;8.40;4.28;;;20.50;16.30;;;;;;20700848;28;20038;-42
2023/09/29 11:03:26;;;;;;;4.30;2.63;;;20.10;52.00;;;;;;20707512;28;20049;-41
2023/09/29 11:13:27;;;;;;;6.90;1.30;;;19.50;99.90;;;;;;20715226;28;20052;-42
2023/09/29 11:23:38;;;;;;;2.95;1.00;;;19.10;99.90;;;;;;20705463;28;20637;-41
2023/09/29 11:33:39;;;;;;;7.22;3.10;;;18.50;99.90;;;;;;20704739;28;20140;-41
2023/09/29 11:43:41;;;;;;;4.30;2.22;;;18.40;99.90;;;;;;20702696;28;20275;-41
2023/09/29 11:53:44;;;;;;;6.97;3.10;;;18.40;99.90;;;;;;20701565;28;20177;-42
2023/09/29 12:03:45;;;;;;;4.53;0.90;;;18.30;99.90;;;;;;20720636;28;20045;-42
2023/09/29 12:13:47;;;;;;;4.15;1.00;;;18.20;99.90;;;;;;20718250;28;20097;-42
2023/09/29 12:23:48;;;;;;;6.03;1.63;;;18.30;66.00;;;;;;20709840;28;20056;-42
2023/09/29 12:33:50;;;;;;;6.80;1.50;;;18.20;45.00;;;;;;20718359;28;20052;-42
2023/09/29 12:43:50;;;;;;;6.05;1.40;;;18.50;30.30;;;;;;20714333;28;20824;-41
2023/09/29 12:53:51;;;;;;;7.22;1.30;;;18.60;1.00;;;;;;20721255;28;20038;-42
2023/09/29 13:03:51;;;;;;;7.90;1.45;;;18.60;1.00;;;;;;20719898;28;20282;-42
2023/09/29 13:13:52;;;;;;;10.85;2.42;;;18.50;1.00;;;;;;20718635;28;20045;-41
2023/09/29 13:23:52;;;;;;;12.60;2.33;;;18.30;1.00;;;;;;20719822;28;20057;-43
2023/09/29 13:33:53;;;;;;;9.40;2.13;;;18.70;1.00;;;;;;20715377;28;20037;-41
2023/09/29 13:43:54;;;;;;;9.55;2.83;;;18.80;1.00;;;;;;20718757;28;20494;-41
2023/09/29 13:53:54;;;;;;;9.45;2.25;;;18.90;1.00;;;;;;20719969;28;20481;-41
2023/09/29 14:03:57;;;;;;;9.10;2.13;;;19.00;1.00;;;;;;20724151;28;20141;-44
2023/09/29 14:13:58;;;;;;;10.25;2.53;;;19.10;1.00;;;;;;20717614;28;20030;-41
2023/09/29 14:23:59;;;;;;;9.63;1.80;;;18.80;1.00;;;;;;20717783;28;20429;-42
2023/09/29 14:34:00;;;;;;;7.47;1.65;;;18.50;1.00;;;;;;20714513;28;20322;-42
2023/09/29 14:44:00;;;;;;;6.30;1.63;;;18.60;1.00;;;;;;20717729;28;20045;-41
2023/09/29 14:54:01;;;;;;;8.88;2.65;;;19.10;1.00;;;;;;20716708;28;20281;-41
2023/09/29 15:04:01;;;;;;;6.57;2.40;;;19.30;1.00;;;;;;20716582;28;20045;-41
2023/09/29 15:14:02;;;;;;;12.25;4.03;;;19.10;1.00;;;;;;20713834;28;20036;-41
2023/09/29 15:24:03;;;;;;;16.17;4.45;;;19.10;1.00;;;;;;20696762;28;20037;-42
2023/09/29 15:34:04;;;;;;;10.77;4.20;;;18.80;1.00;;;;;;20707184;28;20064;-42
2023/09/29 15:44:05;;;;;;;11.85;3.10;;;18.50;1.00;;;;;;20728691;28;20055;-42
2023/09/29 15:54:05;;;;;;;7.35;2.35;;;18.30;1.00;;;;;;20726424;28;20038;-42
2023/09/29 16:04:06;;;;;;;12.15;4.10;;;18.10;1.00;;;;;;20729293;28;20401;-42
2023/09/29 16:14:07;;;;;;;10.55;2.58;;;17.80;1.00;;;;;;20730499;28;20037;-42
2023/09/29 16:24:08;;;;;;;11.88;2.83;;;17.60;1.00;;;;;;20716520;28;20048;-42
2023/09/29 16:34:08;;;;;;;13.32;3.10;;;17.50;1.00;;;;;;20715808;28;20029;-42
2023/09/29 16:44:09;;;;;;;11.80;3.08;;;17.30;1.00;;;;;;20705927;28;20333;-42
2023/09/29 16:54:10;;;;;;;10.10;2.47;;;17.20;1.00;;;;;;20722002;28;20060;-42
2023/09/29 17:04:10;;;;;;;10.45;2.17;;;17.00;1.00;;;;;;20725062;28;20049;-42
2023/09/29 17:14:11;;;;;;;9.80;2.63;;;16.70;1.00;;;;;;20721866;28;20037;-42
2023/09/29 17:24:12;;;;;;;10.05;2.22;;;16.60;1.00;;;;;;20699305;28;20405;-42
2023/09/29 17:34:13;;;;;;;10.23;2.50;;;16.30;1.00;;;;;;20718215;28;20421;-42
2023/09/29 17:44:13;;;;;;;10.02;2.53;;;16.10;1.00;;;;;;20719960;28;20099;-42
2023/09/29 17:54:14;;;;;;;10.13;2.35;;;15.90;1.00;;;;;;20724798;28;20043;-42
2023/09/29 18:04:16;;;;;;;8.45;2.30;;;15.80;1.00;;;;;;20716202;28;20049;-42
2023/09/29 18:14:17;;;;;;;8.63;2.47;;;15.50;1.00;;;;;;20719104;28;20086;-42
2023/09/29 18:24:17;;;;;;;10.43;2.45;;;15.20;1.00;;;;;;20704059;28;20037;-42
2023/09/29 18:34:18;;;;;;;12.18;2.50;;;15.00;1.00;;;;;;20703970;28;20039;-42
2023/09/29 18:44:20;;;;;;;7.30;2.15;;;14.70;1.00;;;;;;20686389;28;20493;-42
2023/09/29 18:54:20;;;;;;;11.85;2.58;;;14.50;1.00;;;;;;20690585;28;20030;-42
2023/09/29 19:04:21;;;;;;;12.45;2.58;;;14.30;1.00;;;;;;20697091;28;20172;-42
2023/09/29 19:14:22;;;;;;;10.17;2.77;;;14.10;4.10;;;;;;20682325;28;20476;-42
2023/09/29 19:24:23;;;;;;;6.72;1.98;;;14.00;8.80;;;;;;20677960;28;20042;-42
2023/09/29 19:34:23;;;;;;;17.00;3.03;;;13.90;11.30;;;;;;20697519;28;20068;-42
2023/09/29 19:44:25;;;;;;;9.02;2.55;;;13.80;15.10;;;;;;20687605;28;20041;-42
2023/09/29 19:54:27;;;;;;;9.02;2.08;;;13.70;20.10;;;;;;20679630;28;20850;-42
2023/09/29 20:04:28;;;;;;;12.85;2.80;;;13.60;24.10;;;;;;20682359;28;20046;-42
2023/09/29 20:14:30;;;;;;;11.68;2.63;;;13.50;26.20;;;;;;20690901;28;20041;-42
2023/09/29 20:24:31;;;;;;;8.25;2.90;;;13.30;25.10;;;;;;20674758;28;20061;-42
2023/09/29 20:34:31;;;;;;;9.75;2.80;;;13.30;29.60;;;;;;20683228;28;20060;-42
2023/09/29 20:44:32;;;;;;;11.88;3.05;;;13.20;32.90;;;;;;20687292;28;20061;-42
2023/09/29 20:54:32;;;;;;;9.93;2.60;;;13.10;33.50;;;;;;20677934;28;20044;-42
2023/09/29 21:04:33;;;;;;;11.13;3.00;;;13.00;39.20;;;;;;20680689;28;20468;-42
2023/09/29 21:14:34;;;;;;;10.10;3.15;;;13.00;42.40;;;;;;20677742;28;20735;-42
2023/09/29 21:24:34;;;;;;;9.98;3.25;;;12.90;50.40;;;;;;20669928;28;20325;-42
2023/09/29 21:34:35;;;;;;;10.57;3.55;;;12.80;54.60;;;;;;20681613;28;20029;-42
2023/09/29 21:44:36;;;;;;;10.50;3.28;;;12.70;49.20;;;;;;20678790;28;20109;-42
2023/09/29 21:54:36;;;;;;;9.88;3.95;;;12.60;51.20;;;;;;20690878;28;20745;-42
2023/09/29 22:04:37;;;;;;;14.38;4.30;;;12.60;65.40;;;;;;20695227;28;20620;-42
2023/09/29 22:14:38;;;;;;;11.18;4.68;;;12.70;79.30;;;;;;20713544;28;20603;-42
2023/09/29 22:24:39;;;;;;;10.75;4.38;;;12.80;81.70;;;;;;20703666;28;20045;-42
2023/09/29 22:34:39;;;;;;;12.55;5.32;;;12.80;86.20;;;;;;20717599;28;20065;-42
2023/09/29 22:44:40;;;;;;;10.20;4.40;;;12.80;78.40;;;;;;20708231;28;20045;-42
2023/09/29 22:54:40;;;;;;;11.70;4.82;;;12.70;84.70;;;;;;20706340;28;20253;-42
2023/09/29 23:04:41;;;;;;;11.75;5.43;;;12.70;76.20;;;;;;20709045;28;20412;-42
2023/09/29 23:14:41;;;;;;;11.82;6.05;;;12.60;79.20;;;;;;20724100;28;20322;-42
2023/09/29 23:24:42;;;;;;;15.05;6.15;;;12.70;94.70;;;;;;20700951;28;20631;-42
2023/09/29 23:34:43;;;;;;;11.25;5.85;;;12.90;94.70;;;;;;20690393;28;20038;-41
2023/09/29 23:44:43;;;;;;;15.00;6.65;;;13.00;99.90;;;;;;20706673;28;20749;-42
2023/09/29 23:54:44;;;;;;;11.93;7.22;;;13.10;99.90;;;;;;20697031;28;20037;-42
